Terminal Aerodrome Forecast
Issued by NWS

Home | Current Version | Previous Version | Text Only | Print | Product List | Glossary On
Versions: 1 2 3 4 5 6 7 8 9 10 11 12 13 14 15 16 17 18
000
FTUS45 KBYZ 191136
TAFLVM
TAF
KLVM 191136Z 1912/2012 25005KT 6SM -SN BR OVC035
     FM191600 31014KT 5SM -SN BR SCT015 BKN025 OVC040
     FM191900 31012KT 3SM -SN BR OVC015
     FM200300 25012KT P6SM VCSH SCT025 BKN050 OVC100=

USA.gov is the U.S. government's official web portal to all federal, state and local government web resources and services.